sensor_id;sensor_type;location;lat;lon;timestamp;temperature;humidity
14771;DHT22;7477;45.222;5.688;2023-07-24T00:01:17;25.80;84.70
14771;DHT22;7477;45.222;5.688;2023-07-24T00:04:37;25.90;84.60
14771;DHT22;7477;45.222;5.688;2023-07-24T00:07:55;25.80;85.90
14771;DHT22;7477;45.222;5.688;2023-07-24T00:11:14;25.70;86.10
14771;DHT22;7477;45.222;5.688;2023-07-24T00:14:34;25.70;87.10
14771;DHT22;7477;45.222;5.688;2023-07-24T00:17:53;25.80;87.40
14771;DHT22;7477;45.222;5.688;2023-07-24T00:21:12;26.10;86.90
14771;DHT22;7477;45.222;5.688;2023-07-24T00:24:32;25.90;87.70
14771;DHT22;7477;45.222;5.688;2023-07-24T00:27:51;25.80;88.20
14771;DHT22;7477;45.222;5.688;2023-07-24T00:31:11;25.80;88.60
14771;DHT22;7477;45.222;5.688;2023-07-24T00:34:30;25.70;89.20
14771;DHT22;7477;45.222;5.688;2023-07-24T00:37:49;25.60;89.20
14771;DHT22;7477;45.222;5.688;2023-07-24T00:41:08;25.60;89.60
14771;DHT22;7477;45.222;5.688;2023-07-24T00:44:27;25.60;90.00
14771;DHT22;7477;45.222;5.688;2023-07-24T00:47:46;25.60;90.00
14771;DHT22;7477;45.222;5.688;2023-07-24T00:51:06;25.60;90.00
14771;DHT22;7477;45.222;5.688;2023-07-24T00:54:27;25.50;90.20
14771;DHT22;7477;45.222;5.688;2023-07-24T00:57:50;25.50;90.40
14771;DHT22;7477;45.222;5.688;2023-07-24T01:01:10;25.40;90.50
14771;DHT22;7477;45.222;5.688;2023-07-24T01:04:29;25.40;90.70
14771;DHT22;7477;45.222;5.688;2023-07-24T01:07:49;25.40;90.90
14771;DHT22;7477;45.222;5.688;2023-07-24T01:11:15;25.40;91.10
14771;DHT22;7477;45.222;5.688;2023-07-24T01:14:52;25.30;91.40
14771;DHT22;7477;45.222;5.688;2023-07-24T01:18:13;25.30;91.70
14771;DHT22;7477;45.222;5.688;2023-07-24T01:21:44;25.30;91.90
14771;DHT22;7477;45.222;5.688;2023-07-24T01:25:18;25.20;92.20
14771;DHT22;7477;45.222;5.688;2023-07-24T01:28:41;25.20;92.30
14771;DHT22;7477;45.222;5.688;2023-07-24T01:32:01;25.20;92.40
14771;DHT22;7477;45.222;5.688;2023-07-24T01:35:20;25.20;92.50
14771;DHT22;7477;45.222;5.688;2023-07-24T01:38:40;25.20;92.60
14771;DHT22;7477;45.222;5.688;2023-07-24T01:42:00;25.20;92.50
14771;DHT22;7477;45.222;5.688;2023-07-24T01:45:19;25.20;92.50
14771;DHT22;7477;45.222;5.688;2023-07-24T01:48:38;25.20;92.40
14771;DHT22;7477;45.222;5.688;2023-07-24T01:51:58;25.20;92.40
14771;DHT22;7477;45.222;5.688;2023-07-24T01:55:17;25.30;92.00
14771;DHT22;7477;45.222;5.688;2023-07-24T01:58:36;25.50;91.40
14771;DHT22;7477;45.222;5.688;2023-07-24T02:01:55;25.10;93.90
14771;DHT22;7477;45.222;5.688;2023-07-24T02:05:15;25.20;92.90
14771;DHT22;7477;45.222;5.688;2023-07-24T02:08:34;25.10;93.50
14771;DHT22;7477;45.222;5.688;2023-07-24T02:11:53;25.10;94.30
14771;DHT22;7477;45.222;5.688;2023-07-24T02:15:13;25.10;94.20
14771;DHT22;7477;45.222;5.688;2023-07-24T02:18:32;25.20;93.50
14771;DHT22;7477;45.222;5.688;2023-07-24T02:21:52;25.30;92.70
14771;DHT22;7477;45.222;5.688;2023-07-24T02:25:11;25.40;93.50
14771;DHT22;7477;45.222;5.688;2023-07-24T02:28:31;24.80;94.60
14771;DHT22;7477;45.222;5.688;2023-07-24T02:31:50;24.60;95.00
14771;DHT22;7477;45.222;5.688;2023-07-24T02:35:10;24.60;94.70
14771;DHT22;7477;45.222;5.688;2023-07-24T02:38:29;24.80;94.90
14771;DHT22;7477;45.222;5.688;2023-07-24T02:41:48;24.50;95.70
14771;DHT22;7477;45.222;5.688;2023-07-24T02:45:08;24.20;96.00
14771;DHT22;7477;45.222;5.688;2023-07-24T02:48:29;24.20;96.60
14771;DHT22;7477;45.222;5.688;2023-07-24T02:51:48;24.00;97.20
14771;DHT22;7477;45.222;5.688;2023-07-24T02:55:09;23.80;98.50
14771;DHT22;7477;45.222;5.688;2023-07-24T02:58:28;23.60;98.30
14771;DHT22;7477;45.222;5.688;2023-07-24T03:01:47;23.60;98.60
14771;DHT22;7477;45.222;5.688;2023-07-24T03:05:06;23.60;98.90
14771;DHT22;7477;45.222;5.688;2023-07-24T03:08:26;23.60;98.40
14771;DHT22;7477;45.222;5.688;2023-07-24T03:11:45;23.60;98.50
14771;DHT22;7477;45.222;5.688;2023-07-24T03:15:05;23.40;99.10
14771;DHT22;7477;45.222;5.688;2023-07-24T03:18:24;23.20;99.20
14771;DHT22;7477;45.222;5.688;2023-07-24T03:21:43;23.30;99.20
14771;DHT22;7477;45.222;5.688;2023-07-24T03:25:02;23.20;99.30
14771;DHT22;7477;45.222;5.688;2023-07-24T03:28:22;23.20;98.70
14771;DHT22;7477;45.222;5.688;2023-07-24T03:31:41;23.20;98.40
14771;DHT22;7477;45.222;5.688;2023-07-24T03:35:00;23.10;98.90
14771;DHT22;7477;45.222;5.688;2023-07-24T03:38:19;23.00;98.90
14771;DHT22;7477;45.222;5.688;2023-07-24T03:41:39;23.10;98.80
14771;DHT22;7477;45.222;5.688;2023-07-24T03:44:58;23.10;98.80
14771;DHT22;7477;45.222;5.688;2023-07-24T03:48:18;23.00;99.70
14771;DHT22;7477;45.222;5.688;2023-07-24T03:51:37;23.00;99.70
14771;DHT22;7477;45.222;5.688;2023-07-24T03:54:56;22.80;99.90
14771;DHT22;7477;45.222;5.688;2023-07-24T03:58:15;22.70;99.90
14771;DHT22;7477;45.222;5.688;2023-07-24T04:01:34;22.70;99.90
14771;DHT22;7477;45.222;5.688;2023-07-24T04:04:53;22.70;99.90
14771;DHT22;7477;45.222;5.688;2023-07-24T04:08:12;22.60;99.90
14771;DHT22;7477;45.222;5.688;2023-07-24T04:11:32;22.70;99.90
14771;DHT22;7477;45.222;5.688;2023-07-24T04:14:51;22.70;99.90
14771;DHT22;7477;45.222;5.688;2023-07-24T04:18:11;22.60;99.90
14771;DHT22;7477;45.222;5.688;2023-07-24T04:21:30;22.50;99.90
14771;DHT22;7477;45.222;5.688;2023-07-24T04:24:49;22.60;99.90
14771;DHT22;7477;45.222;5.688;2023-07-24T04:28:08;22.50;99.90
14771;DHT22;7477;45.222;5.688;2023-07-24T04:31:27;22.40;99.90
14771;DHT22;7477;45.222;5.688;2023-07-24T04:34:47;22.20;99.90
14771;DHT22;7477;45.222;5.688;2023-07-24T04:38:06;22.50;99.90
14771;DHT22;7477;45.222;5.688;2023-07-24T04:41:25;22.00;99.90
14771;DHT22;7477;45.222;5.688;2023-07-24T04:44:44;21.90;99.90
14771;DHT22;7477;45.222;5.688;2023-07-24T04:48:04;22.00;99.90
14771;DHT22;7477;45.222;5.688;2023-07-24T04:51:23;22.10;99.90
14771;DHT22;7477;45.222;5.688;2023-07-24T04:54:42;21.90;99.90
14771;DHT22;7477;45.222;5.688;2023-07-24T04:58:01;22.50;99.90
14771;DHT22;7477;45.222;5.688;2023-07-24T05:01:21;23.00;99.90
14771;DHT22;7477;45.222;5.688;2023-07-24T05:04:40;22.80;99.90
14771;DHT22;7477;45.222;5.688;2023-07-24T05:08:00;22.10;99.90
14771;DHT22;7477;45.222;5.688;2023-07-24T05:11:19;21.90;99.90
14771;DHT22;7477;45.222;5.688;2023-07-24T05:14:38;21.80;99.90
14771;DHT22;7477;45.222;5.688;2023-07-24T05:17:57;21.70;99.90
14771;DHT22;7477;45.222;5.688;2023-07-24T05:21:16;21.60;99.90
14771;DHT22;7477;45.222;5.688;2023-07-24T05:24:39;21.60;99.90
14771;DHT22;7477;45.222;5.688;2023-07-24T05:27:58;21.60;99.90
14771;DHT22;7477;45.222;5.688;2023-07-24T05:31:17;21.60;99.90
14771;DHT22;7477;45.222;5.688;2023-07-24T05:34:36;21.70;99.90
14771;DHT22;7477;45.222;5.688;2023-07-24T05:37:55;21.40;99.90
14771;DHT22;7477;45.222;5.688;2023-07-24T05:41:14;21.40;99.90
14771;DHT22;7477;45.222;5.688;2023-07-24T05:44:33;21.50;99.90
14771;DHT22;7477;45.222;5.688;2023-07-24T05:47:55;21.40;99.90
14771;DHT22;7477;45.222;5.688;2023-07-24T05:51:14;21.40;99.90
14771;DHT22;7477;45.222;5.688;2023-07-24T05:54:33;21.40;99.90
14771;DHT22;7477;45.222;5.688;2023-07-24T05:57:52;21.50;99.90
14771;DHT22;7477;45.222;5.688;2023-07-24T06:01:11;21.40;99.90
14771;DHT22;7477;45.222;5.688;2023-07-24T06:04:31;21.30;99.90
14771;DHT22;7477;45.222;5.688;2023-07-24T06:07:50;21.20;99.90
14771;DHT22;7477;45.222;5.688;2023-07-24T06:11:09;21.30;99.90
14771;DHT22;7477;45.222;5.688;2023-07-24T06:14:29;21.30;99.90
14771;DHT22;7477;45.222;5.688;2023-07-24T06:17:48;21.40;99.90
14771;DHT22;7477;45.222;5.688;2023-07-24T06:21:08;21.50;99.90
14771;DHT22;7477;45.222;5.688;2023-07-24T06:24:27;21.70;99.90
14771;DHT22;7477;45.222;5.688;2023-07-24T06:27:46;21.60;99.90
14771;DHT22;7477;45.222;5.688;2023-07-24T06:31:05;21.80;99.90
14771;DHT22;7477;45.222;5.688;2023-07-24T06:34:24;22.00;99.90
14771;DHT22;7477;45.222;5.688;2023-07-24T06:37:43;21.70;99.90
14771;DHT22;7477;45.222;5.688;2023-07-24T06:41:04;22.10;99.90
14771;DHT22;7477;45.222;5.688;2023-07-24T06:44:23;22.00;99.90
14771;DHT22;7477;45.222;5.688;2023-07-24T06:47:42;21.90;99.90
14771;DHT22;7477;45.222;5.688;2023-07-24T06:51:01;22.00;99.90
14771;DHT22;7477;45.222;5.688;2023-07-24T06:54:20;21.60;99.90
14771;DHT22;7477;45.222;5.688;2023-07-24T06:57:40;21.40;99.90
14771;DHT22;7477;45.222;5.688;2023-07-24T07:00:59;21.30;99.90
14771;DHT22;7477;45.222;5.688;2023-07-24T07:04:18;21.20;99.90
14771;DHT22;7477;45.222;5.688;2023-07-24T07:07:37;21.20;99.90
14771;DHT22;7477;45.222;5.688;2023-07-24T07:10:59;21.40;99.90
14771;DHT22;7477;45.222;5.688;2023-07-24T07:14:19;21.50;99.90
14771;DHT22;7477;45.222;5.688;2023-07-24T07:17:38;21.50;99.90
14771;DHT22;7477;45.222;5.688;2023-07-24T07:20:57;21.40;99.90
14771;DHT22;7477;45.222;5.688;2023-07-24T07:24:16;21.40;99.90
14771;DHT22;7477;45.222;5.688;2023-07-24T07:27:35;21.50;99.90
14771;DHT22;7477;45.222;5.688;2023-07-24T07:30:55;21.60;99.90
14771;DHT22;7477;45.222;5.688;2023-07-24T07:34:14;21.70;99.90
14771;DHT22;7477;45.222;5.688;2023-07-24T07:37:33;21.70;99.90
14771;DHT22;7477;45.222;5.688;2023-07-24T07:40:52;21.80;99.90
14771;DHT22;7477;45.222;5.688;2023-07-24T07:44:12;21.90;99.90
14771;DHT22;7477;45.222;5.688;2023-07-24T07:47:31;22.00;99.90
14771;DHT22;7477;45.222;5.688;2023-07-24T07:50:51;21.90;99.90
14771;DHT22;7477;45.222;5.688;2023-07-24T07:54:10;21.90;99.90
14771;DHT22;7477;45.222;5.688;2023-07-24T07:57:29;21.90;99.90
14771;DHT22;7477;45.222;5.688;2023-07-24T08:00:48;21.90;99.90
14771;DHT22;7477;45.222;5.688;2023-07-24T08:04:07;22.00;99.90
14771;DHT22;7477;45.222;5.688;2023-07-24T08:07:26;22.20;99.90
14771;DHT22;7477;45.222;5.688;2023-07-24T08:10:45;22.20;99.90
14771;DHT22;7477;45.222;5.688;2023-07-24T08:14:05;22.30;99.90
14771;DHT22;7477;45.222;5.688;2023-07-24T08:17:25;22.40;99.90
14771;DHT22;7477;45.222;5.688;2023-07-24T08:20:44;22.40;99.90
14771;DHT22;7477;45.222;5.688;2023-07-24T08:24:04;22.40;99.90
14771;DHT22;7477;45.222;5.688;2023-07-24T08:27:23;22.30;99.90
14771;DHT22;7477;45.222;5.688;2023-07-24T08:30:43;22.40;99.90
14771;DHT22;7477;45.222;5.688;2023-07-24T08:34:02;22.30;99.90
14771;DHT22;7477;45.222;5.688;2023-07-24T08:37:21;22.50;99.90
14771;DHT22;7477;45.222;5.688;2023-07-24T08:40:41;22.60;99.90
14771;DHT22;7477;45.222;5.688;2023-07-24T08:44:00;22.70;99.90
14771;DHT22;7477;45.222;5.688;2023-07-24T08:47:20;22.60;99.90
14771;DHT22;7477;45.222;5.688;2023-07-24T08:50:40;22.40;99.90
14771;DHT22;7477;45.222;5.688;2023-07-24T08:54:01;22.40;99.90
14771;DHT22;7477;45.222;5.688;2023-07-24T08:57:20;22.60;99.90
14771;DHT22;7477;45.222;5.688;2023-07-24T09:00:40;22.50;99.90
14771;DHT22;7477;45.222;5.688;2023-07-24T09:04:00;22.50;99.90
14771;DHT22;7477;45.222;5.688;2023-07-24T09:07:19;22.60;99.90
14771;DHT22;7477;45.222;5.688;2023-07-24T09:10:39;22.70;99.90
14771;DHT22;7477;45.222;5.688;2023-07-24T09:13:59;22.70;99.90
14771;DHT22;7477;45.222;5.688;2023-07-24T09:17:18;22.70;99.90
14771;DHT22;7477;45.222;5.688;2023-07-24T09:20:42;22.80;99.90
14771;DHT22;7477;45.222;5.688;2023-07-24T09:24:12;22.90;99.90
14771;DHT22;7477;45.222;5.688;2023-07-24T09:27:31;23.10;99.90
14771;DHT22;7477;45.222;5.688;2023-07-24T09:30:55;23.30;99.90
14771;DHT22;7477;45.222;5.688;2023-07-24T09:34:16;23.50;99.90
14771;DHT22;7477;45.222;5.688;2023-07-24T09:37:35;23.40;99.90
14771;DHT22;7477;45.222;5.688;2023-07-24T09:40:56;23.20;99.90
14771;DHT22;7477;45.222;5.688;2023-07-24T09:44:15;23.30;99.90
14771;DHT22;7477;45.222;5.688;2023-07-24T09:47:35;23.20;99.90
14771;DHT22;7477;45.222;5.688;2023-07-24T09:50:56;23.20;99.90
14771;DHT22;7477;45.222;5.688;2023-07-24T09:54:22;23.30;99.90
14771;DHT22;7477;45.222;5.688;2023-07-24T09:57:44;23.30;99.90
14771;DHT22;7477;45.222;5.688;2023-07-24T10:01:06;23.40;99.90
14771;DHT22;7477;45.222;5.688;2023-07-24T10:04:26;23.50;99.90
14771;DHT22;7477;45.222;5.688;2023-07-24T10:07:46;23.60;99.90
14771;DHT22;7477;45.222;5.688;2023-07-24T10:11:11;23.60;99.90
14771;DHT22;7477;45.222;5.688;2023-07-24T10:14:30;23.70;99.90
14771;DHT22;7477;45.222;5.688;2023-07-24T10:18:01;23.80;99.90
14771;DHT22;7477;45.222;5.688;2023-07-24T10:21:27;23.80;99.90
14771;DHT22;7477;45.222;5.688;2023-07-24T10:24:47;23.80;99.90
14771;DHT22;7477;45.222;5.688;2023-07-24T10:28:08;23.80;99.90
14771;DHT22;7477;45.222;5.688;2023-07-24T10:31:29;23.90;99.90
14771;DHT22;7477;45.222;5.688;2023-07-24T10:35:08;24.00;99.90
14771;DHT22;7477;45.222;5.688;2023-07-24T10:38:36;24.00;99.90
14771;DHT22;7477;45.222;5.688;2023-07-24T10:42:05;24.00;99.90
14771;DHT22;7477;45.222;5.688;2023-07-24T10:45:25;24.10;99.90
14771;DHT22;7477;45.222;5.688;2023-07-24T10:48:47;24.20;99.90
14771;DHT22;7477;45.222;5.688;2023-07-24T10:52:07;24.10;99.90
14771;DHT22;7477;45.222;5.688;2023-07-24T10:55:27;24.20;99.90
14771;DHT22;7477;45.222;5.688;2023-07-24T10:58:46;24.20;99.90
14771;DHT22;7477;45.222;5.688;2023-07-24T11:02:07;24.40;99.90
14771;DHT22;7477;45.222;5.688;2023-07-24T11:05:27;24.30;99.90
14771;DHT22;7477;45.222;5.688;2023-07-24T11:08:57;24.70;99.90
14771;DHT22;7477;45.222;5.688;2023-07-24T11:12:17;24.90;99.90
14771;DHT22;7477;45.222;5.688;2023-07-24T11:15:37;24.90;99.90
14771;DHT22;7477;45.222;5.688;2023-07-24T11:18:56;24.80;99.90
14771;DHT22;7477;45.222;5.688;2023-07-24T11:22:15;24.80;99.90
14771;DHT22;7477;45.222;5.688;2023-07-24T11:25:40;24.80;99.90
14771;DHT22;7477;45.222;5.688;2023-07-24T11:29:00;24.70;99.90
14771;DHT22;7477;45.222;5.688;2023-07-24T11:32:19;24.70;99.90
14771;DHT22;7477;45.222;5.688;2023-07-24T11:35:40;24.70;99.90
14771;DHT22;7477;45.222;5.688;2023-07-24T11:38:59;24.70;99.90
14771;DHT22;7477;45.222;5.688;2023-07-24T11:42:18;24.80;99.90
14771;DHT22;7477;45.222;5.688;2023-07-24T11:45:44;24.70;99.90
14771;DHT22;7477;45.222;5.688;2023-07-24T11:49:04;24.80;99.90
14771;DHT22;7477;45.222;5.688;2023-07-24T11:52:25;24.70;99.90
14771;DHT22;7477;45.222;5.688;2023-07-24T11:55:44;24.80;99.90
14771;DHT22;7477;45.222;5.688;2023-07-24T11:59:11;24.70;99.90
14771;DHT22;7477;45.222;5.688;2023-07-24T12:02:32;24.60;99.90
14771;DHT22;7477;45.222;5.688;2023-07-24T12:05:52;24.70;99.90
14771;DHT22;7477;45.222;5.688;2023-07-24T12:09:12;24.80;99.90
14771;DHT22;7477;45.222;5.688;2023-07-24T12:12:46;24.90;99.90
14771;DHT22;7477;45.222;5.688;2023-07-24T12:16:06;24.90;99.90
14771;DHT22;7477;45.222;5.688;2023-07-24T12:19:25;25.00;99.90
14771;DHT22;7477;45.222;5.688;2023-07-24T12:22:44;25.00;99.90
14771;DHT22;7477;45.222;5.688;2023-07-24T12:26:03;24.90;99.90
14771;DHT22;7477;45.222;5.688;2023-07-24T12:29:22;24.90;99.90
14771;DHT22;7477;45.222;5.688;2023-07-24T12:32:41;24.90;99.90
14771;DHT22;7477;45.222;5.688;2023-07-24T12:36:00;24.90;99.90
14771;DHT22;7477;45.222;5.688;2023-07-24T12:39:20;25.10;99.90
14771;DHT22;7477;45.222;5.688;2023-07-24T12:42:39;25.20;99.90
14771;DHT22;7477;45.222;5.688;2023-07-24T12:45:59;25.40;99.90
14771;DHT22;7477;45.222;5.688;2023-07-24T12:49:18;25.40;99.90
14771;DHT22;7477;45.222;5.688;2023-07-24T12:52:37;25.60;99.90
14771;DHT22;7477;45.222;5.688;2023-07-24T12:55:56;26.00;99.90
14771;DHT22;7477;45.222;5.688;2023-07-24T12:59:17;26.00;99.90
14771;DHT22;7477;45.222;5.688;2023-07-24T13:02:36;25.90;99.70
14771;DHT22;7477;45.222;5.688;2023-07-24T13:05:57;25.90;99.60
14771;DHT22;7477;45.222;5.688;2023-07-24T13:09:17;26.00;99.80
14771;DHT22;7477;45.222;5.688;2023-07-24T13:12:36;25.90;99.90
14771;DHT22;7477;45.222;5.688;2023-07-24T13:15:55;25.90;99.90
14771;DHT22;7477;45.222;5.688;2023-07-24T13:19:15;26.00;99.90
14771;DHT22;7477;45.222;5.688;2023-07-24T13:22:34;26.00;99.90
14771;DHT22;7477;45.222;5.688;2023-07-24T13:25:53;25.80;99.90
14771;DHT22;7477;45.222;5.688;2023-07-24T13:29:12;25.80;99.90
14771;DHT22;7477;45.222;5.688;2023-07-24T13:32:31;25.80;99.90
14771;DHT22;7477;45.222;5.688;2023-07-24T13:35:50;26.00;99.90
14771;DHT22;7477;45.222;5.688;2023-07-24T13:39:10;25.90;99.90
14771;DHT22;7477;45.222;5.688;2023-07-24T13:42:29;26.00;99.90
14771;DHT22;7477;45.222;5.688;2023-07-24T13:45:48;26.10;99.90
14771;DHT22;7477;45.222;5.688;2023-07-24T13:49:08;26.20;99.90
14771;DHT22;7477;45.222;5.688;2023-07-24T13:52:27;26.50;99.90
14771;DHT22;7477;45.222;5.688;2023-07-24T13:55:47;26.30;99.90
14771;DHT22;7477;45.222;5.688;2023-07-24T13:59:06;25.70;99.90
14771;DHT22;7477;45.222;5.688;2023-07-24T14:02:25;25.40;99.90
14771;DHT22;7477;45.222;5.688;2023-07-24T14:05:44;25.30;99.90
14771;DHT22;7477;45.222;5.688;2023-07-24T14:09:03;25.20;99.90
14771;DHT22;7477;45.222;5.688;2023-07-24T14:12:23;25.30;99.90
14771;DHT22;7477;45.222;5.688;2023-07-24T14:15:42;25.30;99.90
14771;DHT22;7477;45.222;5.688;2023-07-24T14:19:01;25.30;99.90
14771;DHT22;7477;45.222;5.688;2023-07-24T14:22:20;25.30;99.90
14771;DHT22;7477;45.222;5.688;2023-07-24T14:25:39;25.30;99.90
14771;DHT22;7477;45.222;5.688;2023-07-24T14:28:59;25.30;99.70
14771;DHT22;7477;45.222;5.688;2023-07-24T14:32:19;25.70;99.90
14771;DHT22;7477;45.222;5.688;2023-07-24T14:35:38;26.40;99.70
14771;DHT22;7477;45.222;5.688;2023-07-24T14:38:57;26.30;99.90
14771;DHT22;7477;45.222;5.688;2023-07-24T14:42:16;27.90;97.70
14771;DHT22;7477;45.222;5.688;2023-07-24T14:45:36;28.30;97.10
14771;DHT22;7477;45.222;5.688;2023-07-24T14:48:55;29.10;95.60
14771;DHT22;7477;45.222;5.688;2023-07-24T14:52:14;29.30;95.80
14771;DHT22;7477;45.222;5.688;2023-07-24T14:55:34;29.50;94.10
14771;DHT22;7477;45.222;5.688;2023-07-24T14:58:53;29.50;94.50
14771;DHT22;7477;45.222;5.688;2023-07-24T15:02:12;28.90;95.40
14771;DHT22;7477;45.222;5.688;2023-07-24T15:05:32;29.00;95.50
14771;DHT22;7477;45.222;5.688;2023-07-24T15:08:51;28.70;95.90
14771;DHT22;7477;45.222;5.688;2023-07-24T15:12:12;28.20;97.20
14771;DHT22;7477;45.222;5.688;2023-07-24T15:15:31;27.90;97.40
14771;DHT22;7477;45.222;5.688;2023-07-24T15:18:50;27.80;97.90
14771;DHT22;7477;45.222;5.688;2023-07-24T15:22:09;27.60;98.00
14771;DHT22;7477;45.222;5.688;2023-07-24T15:25:28;27.50;98.20
14771;DHT22;7477;45.222;5.688;2023-07-24T15:28:48;27.30;98.70
14771;DHT22;7477;45.222;5.688;2023-07-24T15:32:08;27.20;99.00
14771;DHT22;7477;45.222;5.688;2023-07-24T15:35:27;27.20;99.20
14771;DHT22;7477;45.222;5.688;2023-07-24T15:38:46;27.10;99.20
14771;DHT22;7477;45.222;5.688;2023-07-24T15:42:06;27.00;99.40
14771;DHT22;7477;45.222;5.688;2023-07-24T15:45:26;26.70;99.30
14771;DHT22;7477;45.222;5.688;2023-07-24T15:48:45;26.70;99.90
14771;DHT22;7477;45.222;5.688;2023-07-24T15:52:05;26.10;99.90
14771;DHT22;7477;45.222;5.688;2023-07-24T15:55:25;25.50;99.90
14771;DHT22;7477;45.222;5.688;2023-07-24T15:58:45;25.60;99.90
14771;DHT22;7477;45.222;5.688;2023-07-24T16:02:04;26.10;99.90
14771;DHT22;7477;45.222;5.688;2023-07-24T16:05:24;26.30;99.90
14771;DHT22;7477;45.222;5.688;2023-07-24T16:08:43;26.30;99.90
14771;DHT22;7477;45.222;5.688;2023-07-24T16:12:02;26.20;99.90
14771;DHT22;7477;45.222;5.688;2023-07-24T16:15:21;26.00;99.90
14771;DHT22;7477;45.222;5.688;2023-07-24T16:18:41;26.00;99.90
14771;DHT22;7477;45.222;5.688;2023-07-24T16:22:00;26.10;99.90
14771;DHT22;7477;45.222;5.688;2023-07-24T16:25:19;26.30;99.90
14771;DHT22;7477;45.222;5.688;2023-07-24T16:28:38;26.60;99.90
14771;DHT22;7477;45.222;5.688;2023-07-24T16:31:58;26.50;99.90
14771;DHT22;7477;45.222;5.688;2023-07-24T16:35:18;26.30;99.90
14771;DHT22;7477;45.222;5.688;2023-07-24T16:38:37;26.10;99.90
14771;DHT22;7477;45.222;5.688;2023-07-24T16:41:57;26.10;99.90
14771;DHT22;7477;45.222;5.688;2023-07-24T16:45:16;26.10;99.90
14771;DHT22;7477;45.222;5.688;2023-07-24T16:48:36;26.10;99.90
14771;DHT22;7477;45.222;5.688;2023-07-24T16:51:56;26.20;99.90
14771;DHT22;7477;45.222;5.688;2023-07-24T16:55:18;26.20;99.70
14771;DHT22;7477;45.222;5.688;2023-07-24T16:58:37;26.10;99.60
14771;DHT22;7477;45.222;5.688;2023-07-24T17:01:57;26.10;99.70
14771;DHT22;7477;45.222;5.688;2023-07-24T17:05:17;26.00;99.10
14771;DHT22;7477;45.222;5.688;2023-07-24T17:08:37;25.90;99.50
14771;DHT22;7477;45.222;5.688;2023-07-24T17:11:57;25.90;99.60
14771;DHT22;7477;45.222;5.688;2023-07-24T17:15:16;26.00;99.80
14771;DHT22;7477;45.222;5.688;2023-07-24T17:18:36;26.10;99.90
14771;DHT22;7477;45.222;5.688;2023-07-24T17:21:55;26.10;99.90
14771;DHT22;7477;45.222;5.688;2023-07-24T17:25:14;26.10;99.50
14771;DHT22;7477;45.222;5.688;2023-07-24T17:28:33;26.10;99.60
14771;DHT22;7477;45.222;5.688;2023-07-24T17:31:52;26.10;99.90
14771;DHT22;7477;45.222;5.688;2023-07-24T17:35:11;26.10;99.90
14771;DHT22;7477;45.222;5.688;2023-07-24T17:38:30;26.10;99.90
14771;DHT22;7477;45.222;5.688;2023-07-24T17:41:50;26.20;99.90
14771;DHT22;7477;45.222;5.688;2023-07-24T17:45:10;26.20;99.90
14771;DHT22;7477;45.222;5.688;2023-07-24T17:48:29;26.20;99.90
14771;DHT22;7477;45.222;5.688;2023-07-24T17:51:48;26.10;99.90
14771;DHT22;7477;45.222;5.688;2023-07-24T17:55:08;26.00;99.90
14771;DHT22;7477;45.222;5.688;2023-07-24T17:58:28;26.10;99.90
14771;DHT22;7477;45.222;5.688;2023-07-24T18:01:47;26.10;99.90
14771;DHT22;7477;45.222;5.688;2023-07-24T18:05:06;26.10;99.90
14771;DHT22;7477;45.222;5.688;2023-07-24T18:08:25;26.10;99.90
14771;DHT22;7477;45.222;5.688;2023-07-24T18:11:45;26.10;99.90
14771;DHT22;7477;45.222;5.688;2023-07-24T18:15:04;26.10;99.90
14771;DHT22;7477;45.222;5.688;2023-07-24T18:18:24;26.10;99.90
14771;DHT22;7477;45.222;5.688;2023-07-24T18:21:43;26.00;99.90
14771;DHT22;7477;45.222;5.688;2023-07-24T18:25:03;25.90;99.90
14771;DHT22;7477;45.222;5.688;2023-07-24T18:28:22;25.90;99.90
14771;DHT22;7477;45.222;5.688;2023-07-24T18:31:42;25.90;99.90
14771;DHT22;7477;45.222;5.688;2023-07-24T18:35:01;25.90;99.90
14771;DHT22;7477;45.222;5.688;2023-07-24T18:38:20;25.90;99.90
14771;DHT22;7477;45.222;5.688;2023-07-24T18:41:39;26.00;99.90
14771;DHT22;7477;45.222;5.688;2023-07-24T18:44:59;26.00;99.90
14771;DHT22;7477;45.222;5.688;2023-07-24T18:48:18;26.00;99.90
14771;DHT22;7477;45.222;5.688;2023-07-24T18:51:38;25.90;99.90
14771;DHT22;7477;45.222;5.688;2023-07-24T18:54:57;25.90;99.90
14771;DHT22;7477;45.222;5.688;2023-07-24T18:58:18;25.90;99.90
14771;DHT22;7477;45.222;5.688;2023-07-24T19:01:38;25.80;99.90
14771;DHT22;7477;45.222;5.688;2023-07-24T19:04:57;25.80;99.90
14771;DHT22;7477;45.222;5.688;2023-07-24T19:08:16;25.80;99.90
14771;DHT22;7477;45.222;5.688;2023-07-24T19:11:35;25.90;99.90
14771;DHT22;7477;45.222;5.688;2023-07-24T19:14:54;25.90;99.90
14771;DHT22;7477;45.222;5.688;2023-07-24T19:18:14;25.80;99.90
14771;DHT22;7477;45.222;5.688;2023-07-24T19:21:34;25.70;99.90
14771;DHT22;7477;45.222;5.688;2023-07-24T19:24:53;25.60;99.90
14771;DHT22;7477;45.222;5.688;2023-07-24T19:28:13;25.60;99.90
14771;DHT22;7477;45.222;5.688;2023-07-24T19:31:32;25.50;99.90
14771;DHT22;7477;45.222;5.688;2023-07-24T19:34:52;25.30;99.90
14771;DHT22;7477;45.222;5.688;2023-07-24T19:38:11;25.20;99.90
14771;DHT22;7477;45.222;5.688;2023-07-24T19:41:31;25.20;99.90
14771;DHT22;7477;45.222;5.688;2023-07-24T19:44:50;25.30;99.90
14771;DHT22;7477;45.222;5.688;2023-07-24T19:48:09;25.50;99.90
14771;DHT22;7477;45.222;5.688;2023-07-24T19:51:28;25.40;99.90
14771;DHT22;7477;45.222;5.688;2023-07-24T19:54:48;25.30;99.90
14771;DHT22;7477;45.222;5.688;2023-07-24T19:58:08;24.70;99.90
14771;DHT22;7477;45.222;5.688;2023-07-24T20:01:27;24.90;99.90
14771;DHT22;7477;45.222;5.688;2023-07-24T20:04:46;24.60;99.90
14771;DHT22;7477;45.222;5.688;2023-07-24T20:08:06;24.60;99.90
14771;DHT22;7477;45.222;5.688;2023-07-24T20:11:25;24.60;99.90
14771;DHT22;7477;45.222;5.688;2023-07-24T20:14:44;24.60;99.90
14771;DHT22;7477;45.222;5.688;2023-07-24T20:18:03;24.70;99.90
14771;DHT22;7477;45.222;5.688;2023-07-24T20:21:23;24.60;99.90
14771;DHT22;7477;45.222;5.688;2023-07-24T20:24:42;24.60;99.90
14771;DHT22;7477;45.222;5.688;2023-07-24T20:28:01;24.50;99.90
14771;DHT22;7477;45.222;5.688;2023-07-24T20:31:21;24.40;99.90
14771;DHT22;7477;45.222;5.688;2023-07-24T20:34:40;24.30;99.90
14771;DHT22;7477;45.222;5.688;2023-07-24T20:38:03;24.20;99.90
14771;DHT22;7477;45.222;5.688;2023-07-24T20:41:23;24.30;99.90
14771;DHT22;7477;45.222;5.688;2023-07-24T20:44:42;24.30;99.90
14771;DHT22;7477;45.222;5.688;2023-07-24T20:48:02;24.30;99.90
14771;DHT22;7477;45.222;5.688;2023-07-24T20:51:22;24.20;99.90
14771;DHT22;7477;45.222;5.688;2023-07-24T20:54:42;24.30;99.90
14771;DHT22;7477;45.222;5.688;2023-07-24T20:58:01;24.20;99.90
14771;DHT22;7477;45.222;5.688;2023-07-24T21:01:20;24.10;99.90
14771;DHT22;7477;45.222;5.688;2023-07-24T21:04:42;23.90;99.90
14771;DHT22;7477;45.222;5.688;2023-07-24T21:08:01;23.50;99.90
14771;DHT22;7477;45.222;5.688;2023-07-24T21:11:21;23.50;99.90
14771;DHT22;7477;45.222;5.688;2023-07-24T21:14:41;23.50;99.90
14771;DHT22;7477;45.222;5.688;2023-07-24T21:18:00;23.40;99.90
14771;DHT22;7477;45.222;5.688;2023-07-24T21:21:20;23.10;99.90